Airfield :
LOGIN :

Register | Disclaimer

   EN    FR    IT 

 










Legend :    VFR   Marginal VFR   IFR   Intensive IFR   Very Intensive IFR
Visi :
Ceiling :
>= 8 km
>= 3000ft
5 to 8 km
1000 to 3000 ft
1500m to 5 km
500 to 1000 ft
800 to 1500m
200 to 500 ft
< 800m
< 200 ft
Symbols :   Thunderstorms  Fog  Heavy snow  Heavy precipitations  Wind > 20 kt
SIGMETs :     Misc.  Thunderstorms  Icing  Turbulence  Mountain Waves  Volcanic Ashes







- Airport Elevation : 218 ft
- IATA code : LBG
- Download approach charts


LFPB - Paris / Le Bourget

CURRENT METAR :
  • 161730Z AUTO 35005KT 320V030 CAVOK 29/14 Q1012 TEMPO 35015G30KT

EXPIRED METARs :
  • 161700Z AUTO 35006KT 320V030 CAVOK 29/13 Q1012 TEMPO 35015G25KT
  • 161630Z AUTO 34004KT 310V030 CAVOK 30/12 Q1012 TEMPO 35015G25KT
  • 161600Z AUTO 31003KT 240V010 CAVOK 31/13 Q1012 NOSIG
  • 161530Z AUTO VRB02KT CAVOK 30/12 Q1013 NOSIG
  • 161500Z AUTO VRB03KT CAVOK 30/13 Q1013 NOSIG
  • 161430Z AUTO 21005KT 140V290 CAVOK 30/13 Q1013 BECMG 35010KT

TAF TAF LFPB
Valid from the 16 at 18:00 until the 17 at 18:00 UTC


161700Z 1618/1718 35010KT CAVOK TX27/1618Z TN15/1706Z
TEMPO 1618/1620 35015G30KT
TEMPO 1620/1702 -SHRA SCT050CB
PROB40
TEMPO 1622/1702 3000 TSRA BKN035CB
PROB40
TEMPO 1702/1706 SCT010 BKN012
BECMG 1708/1710 33010KT BKN025
ATIS : +33 1 48 62 43 92
No reported NOTAMs for that airfield.



MET'MAP, your aeronautical weather chart ! - Copyright ORBIFLY December 2007 - Disclaimer

ORBIFLY MET'MAP TEAM :

Programming & Development : Alexandra Zaïnal
Concept & Development : Baudouin d'Aumeries
Co-Development & Prog : Marc-Olivier Méhu
Technical & hardware support : Manuel Goepfert

Contact : metmap@orbifly.com




SOURCES & CREDITS :

   NOAA